Time;durP1;ratioP1;P1;durP2;ratioP2;P2;SDS_P1;SDS_P2;PMS_P1;PMS_P2;Temp;Humidity;BMP_temperature;BMP_pressure;BME280_temperature;BME280_humidity;BME280_pressure;Samples;Min_cycle;Max_cycle;Signal;HPM_P1;HPM_P2
2022/10/04 00:00:24;;;;;;;;;;;11.90;99.90;;;;;;5064343;28;20061;-75
2022/10/04 00:02:52;;;;;;;;;;;11.90;99.90;;;;;;5062695;28;19928;-72
2022/10/04 00:05:20;;;;;;;;;;;11.90;99.90;;;;;;5064296;28;19928;-76
2022/10/04 00:07:50;;;;;;;;;;;11.90;99.90;;;;;;5068236;28;19927;-75
2022/10/04 00:10:17;;;;;;;;;;;11.90;99.90;;;;;;5066626;28;19991;-75
2022/10/04 00:12:49;;;;;;;;;;;11.90;99.90;;;;;;5066915;28;20235;-75
2022/10/04 00:15:20;;;;;;;;;;;11.80;99.90;;;;;;5068245;28;19979;-74
2022/10/04 00:18:19;;;;;;;;;;;11.80;99.90;;;;;;5066961;28;20027;-75
2022/10/04 00:20:49;;;;;;;;;;;11.80;99.90;;;;;;5063542;28;20283;-71
2022/10/04 00:23:22;;;;;;;;;;;11.80;99.90;;;;;;5067900;28;19991;-75
2022/10/04 00:25:52;;;;;;;;;;;11.80;99.90;;;;;;5068440;28;20018;-76
2022/10/04 00:28:19;;;;;;;;;;;11.90;99.90;;;;;;5067710;28;19971;-76
2022/10/04 00:31:05;;;;;;;;;;;11.90;99.90;;;;;;5065774;28;19920;-74
2022/10/04 00:33:36;;;;;;;;;;;11.90;99.90;;;;;;5064852;28;20361;-76
2022/10/04 00:36:21;;;;;;;;;;;11.90;99.90;;;;;;5071034;28;19966;-76
2022/10/04 00:39:13;;;;;;;;;;;11.90;99.90;;;;;;5067592;28;19967;-73
2022/10/04 00:41:45;;;;;;;;;;;11.80;99.90;;;;;;5070648;28;19921;-74
2022/10/04 00:44:31;;;;;;;;;;;11.80;99.90;;;;;;5072298;28;19927;-76
2022/10/04 00:46:59;;;;;;;;;;;11.90;99.90;;;;;;5068473;28;19985;-70
2022/10/04 00:49:36;;;;;;;;;;;11.90;99.90;;;;;;5070204;28;19925;-76
2022/10/04 00:52:06;;;;;;;;;;;11.80;99.90;;;;;;5070571;28;19974;-76
2022/10/04 00:54:40;;;;;;;;;;;11.80;99.90;;;;;;5069779;28;19921;-74
2022/10/04 00:57:24;;;;;;;;;;;11.80;99.90;;;;;;5067575;28;19927;-75
2022/10/04 00:59:52;;;;;;;;;;;11.80;99.90;;;;;;5071166;28;19932;-75
2022/10/04 01:02:21;;;;;;;;;;;11.80;99.90;;;;;;5066150;28;19928;-74
2022/10/04 01:05:06;;;;;;;;;;;11.70;99.90;;;;;;5062637;28;19921;-74
2022/10/04 01:07:37;;;;;;;;;;;11.70;99.90;;;;;;5066991;28;19924;-75
2022/10/04 01:10:07;;;;;;;;;;;11.70;99.90;;;;;;5070004;28;20022;-75
2022/10/04 01:12:53;;;;;;;;;;;11.60;99.90;;;;;;5068870;28;19951;-73
2022/10/04 01:15:25;;;;;;;;;;;11.60;99.90;;;;;;5068561;28;19921;-75
2022/10/04 01:18:06;;;;;;;;;;;11.60;99.90;;;;;;5069543;28;20071;-74
2022/10/04 01:20:47;;;;;;;;;;;11.50;99.90;;;;;;5067707;28;20342;-76
2022/10/04 01:23:32;;;;;;;;;;;11.60;99.90;;;;;;5067215;28;20372;-75
2022/10/04 01:26:00;;;;;;;;;;;11.60;99.90;;;;;;5066035;28;20299;-75
2022/10/04 01:28:27;;;;;;;;;;;11.60;99.90;;;;;;5070215;28;19927;-72
2022/10/04 01:30:54;;;;;;;;;;;11.50;99.90;;;;;;5068049;28;20004;-75
2022/10/04 01:33:21;;;;;;;;;;;11.60;99.90;;;;;;5068912;28;20498;-76
2022/10/04 01:35:48;;;;;;;;;;;11.60;99.90;;;;;;5068944;28;19920;-75
2022/10/04 01:38:14;;;;;;;;;;;11.60;99.90;;;;;;5069777;28;20345;-76
2022/10/04 01:40:45;;;;;;;;;;;11.60;99.90;;;;;;5057010;28;20011;-77
2022/10/04 01:43:14;;;;;;;;;;;11.60;99.90;;;;;;5069297;28;20329;-76
2022/10/04 01:45:46;;;;;;;;;;;11.70;99.90;;;;;;5068302;28;20008;-75
2022/10/04 01:48:15;;;;;;;;;;;11.70;99.90;;;;;;5065012;28;20022;-77
2022/10/04 01:50:44;;;;;;;;;;;11.70;99.90;;;;;;5065406;28;19943;-76
2022/10/04 01:53:26;;;;;;;;;;;11.70;99.90;;;;;;5061672;28;19931;-73
2022/10/04 01:55:55;;;;;;;;;;;11.70;99.90;;;;;;5066230;28;19921;-76
2022/10/04 01:58:27;;;;;;;;;;;11.70;99.90;;;;;;5068091;28;19966;-72
2022/10/04 02:00:57;;;;;;;;;;;11.80;99.90;;;;;;5065530;28;19960;-76
2022/10/04 02:03:34;;;;;;;;;;;11.70;99.90;;;;;;5064888;28;19920;-76
2022/10/04 02:06:03;;;;;;;;;;;11.80;99.90;;;;;;5061864;28;19936;-76
2022/10/04 02:08:32;;;;;;;;;;;11.70;99.90;;;;;;5068192;28;20003;-76
2022/10/04 02:11:00;;;;;;;;;;;11.80;99.90;;;;;;5064615;28;20431;-74
2022/10/04 02:13:31;;;;;;;;;;;11.70;99.90;;;;;;5069111;28;20024;-74
2022/10/04 02:15:58;;;;;;;;;;;11.80;99.90;;;;;;5068930;28;20130;-73
2022/10/04 02:18:26;;;;;;;;;;;11.80;99.90;;;;;;5060623;28;19962;-74
2022/10/04 02:20:54;;;;;;;;;;;11.70;99.90;;;;;;5058618;28;19970;-75
2022/10/04 02:23:21;;;;;;;;;;;11.70;99.90;;;;;;5065803;28;19924;-75
2022/10/04 02:25:48;;;;;;;;;;;11.60;99.90;;;;;;5062727;28;20246;-70
2022/10/04 02:28:17;;;;;;;;;;;11.60;99.90;;;;;;5063363;28;19920;-75
2022/10/04 02:32:56;;;;;;;;;;;11.60;99.90;;;;;;5066490;28;20353;-75
2022/10/04 02:33:37;;;;;;;;;;;11.50;99.90;;;;;;5067101;28;19960;-76
2022/10/04 02:36:05;;;;;;;;;;;11.50;99.90;;;;;;5063642;28;20006;-76
2022/10/04 02:38:34;;;;;;;;;;;11.50;99.90;;;;;;5063363;28;19935;-73
2022/10/04 02:41:05;;;;;;;;;;;11.50;99.90;;;;;;5068346;28;19928;-76
2022/10/04 02:43:36;;;;;;;;;;;11.50;99.90;;;;;;5068837;28;19921;-73
2022/10/04 02:46:07;;;;;;;;;;;11.60;99.90;;;;;;5066048;28;19924;-76
2022/10/04 02:48:48;;;;;;;;;;;11.60;99.90;;;;;;5066140;28;19927;-74
2022/10/04 02:51:22;;;;;;;;;;;11.60;99.90;;;;;;5061198;28;20408;-76
2022/10/04 02:53:59;;;;;;;;;;;11.50;99.90;;;;;;5064320;28;19920;-76
2022/10/04 02:56:30;;;;;;;;;;;11.50;99.90;;;;;;5060639;28;20336;-76
2022/10/04 02:59:00;;;;;;;;;;;11.50;99.90;;;;;;5058685;28;19920;-75
2022/10/04 03:01:35;;;;;;;;;;;11.50;99.90;;;;;;5057931;28;19921;-75
2022/10/04 03:04:03;;;;;;;;;;;11.50;99.90;;;;;;5064367;28;19924;-76
2022/10/04 03:06:31;;;;;;;;;;;11.60;99.90;;;;;;5067822;28;19971;-75
2022/10/04 03:09:00;;;;;;;;;;;11.60;99.90;;;;;;5065694;28;19967;-71
2022/10/04 03:11:30;;;;;;;;;;;11.50;99.90;;;;;;5068146;28;19927;-75
2022/10/04 03:13:58;;;;;;;;;;;11.50;99.90;;;;;;5062936;28;20332;-76
2022/10/04 03:16:25;;;;;;;;;;;11.50;99.90;;;;;;5063339;28;19920;-75
2022/10/04 03:18:55;;;;;;;;;;;11.50;99.90;;;;;;5061062;28;19937;-75
2022/10/04 03:21:23;;;;;;;;;;;11.50;99.90;;;;;;5049350;28;20356;-74
2022/10/04 03:23:51;;;;;;;;;;;11.50;99.90;;;;;;5059660;28;19940;-70
2022/10/04 03:26:28;;;;;;;;;;;11.50;99.90;;;;;;5063654;28;19920;-73
2022/10/04 03:28:56;;;;;;;;;;;11.50;99.90;;;;;;5061103;28;20024;-73
2022/10/04 03:31:26;;;;;;;;;;;11.50;99.90;;;;;;5059677;28;19921;-76
2022/10/04 03:33:54;;;;;;;;;;;11.50;99.90;;;;;;5063438;28;19995;-75
2022/10/04 03:36:22;;;;;;;;;;;11.50;99.90;;;;;;5066198;28;20150;-73
2022/10/04 03:38:51;;;;;;;;;;;11.50;99.90;;;;;;5061770;28;19920;-77
2022/10/04 03:41:18;;;;;;;;;;;11.40;99.90;;;;;;5062006;28;20015;-74
2022/10/04 03:43:48;;;;;;;;;;;11.40;99.90;;;;;;5062930;28;20375;-76
2022/10/04 03:46:16;;;;;;;;;;;11.40;99.90;;;;;;5066342;28;19971;-71
2022/10/04 03:48:49;;;;;;;;;;;11.40;99.90;;;;;;5063823;28;19928;-75
2022/10/04 03:51:17;;;;;;;;;;;11.40;99.90;;;;;;5066107;28;19921;-74
2022/10/04 03:53:46;;;;;;;;;;;11.40;99.90;;;;;;5061817;28;19927;-76
2022/10/04 03:56:32;;;;;;;;;;;11.40;99.90;;;;;;5064262;28;20358;-74
2022/10/04 03:59:06;;;;;;;;;;;11.40;99.90;;;;;;5064864;28;19932;-76
2022/10/04 04:01:41;;;;;;;;;;;11.40;99.90;;;;;;5067082;28;19962;-74
2022/10/04 04:04:17;;;;;;;;;;;11.40;99.90;;;;;;5063476;28;20046;-76
2022/10/04 04:07:07;;;;;;;;;;;11.40;99.90;;;;;;5063195;28;20017;-72
2022/10/04 04:09:42;;;;;;;;;;;11.40;99.90;;;;;;5058448;28;19921;-73
2022/10/04 04:12:33;;;;;;;;;;;11.50;99.90;;;;;;5064393;28;19924;-73
2022/10/04 04:15:00;;;;;;;;;;;11.50;99.90;;;;;;5015471;28;20094;-75
2022/10/04 04:17:30;;;;;;;;;;;11.50;99.90;;;;;;5065193;28;20024;-75
2022/10/04 04:19:58;;;;;;;;;;;11.50;99.90;;;;;;5064397;28;19939;-75
2022/10/04 04:22:32;;;;;;;;;;;11.40;99.90;;;;;;5066355;28;19936;-72
2022/10/04 04:25:00;;;;;;;;;;;11.40;99.90;;;;;;5063845;28;20019;-75
2022/10/04 04:27:28;;;;;;;;;;;11.50;99.90;;;;;;5064396;28;20011;-75
2022/10/04 04:29:58;;;;;;;;;;;11.50;99.90;;;;;;5065631;28;20015;-76
2022/10/04 04:32:30;;;;;;;;;;;11.50;99.90;;;;;;5066198;28;19920;-74
2022/10/04 04:34:59;;;;;;;;;;;11.40;99.90;;;;;;5058206;28;20341;-76
2022/10/04 04:37:26;;;;;;;;;;;11.40;99.90;;;;;;5063043;28;19920;-74
2022/10/04 04:39:56;;;;;;;;;;;11.40;99.90;;;;;;5065610;28;20606;-75
2022/10/04 04:42:29;;;;;;;;;;;11.50;99.90;;;;;;5064791;28;19977;-74
2022/10/04 04:44:59;;;;;;;;;;;11.40;99.90;;;;;;5061391;28;19955;-74
2022/10/04 04:47:40;;;;;;;;;;;11.50;99.90;;;;;;5064888;28;19927;-77
2022/10/04 04:50:29;;;;;;;;;;;11.50;99.90;;;;;;5060284;28;19920;-74
2022/10/04 04:53:04;;;;;;;;;;;11.50;99.90;;;;;;5061276;28;19998;-75
2022/10/04 04:55:37;;;;;;;;;;;11.50;99.90;;;;;;5065619;28;19951;-74
2022/10/04 04:58:26;;;;;;;;;;;11.50;99.90;;;;;;5061490;28;19920;-72
2022/10/04 05:00:57;;;;;;;;;;;11.50;99.90;;;;;;5063172;28;19928;-76
2022/10/04 05:03:25;;;;;;;;;;;11.50;99.90;;;;;;5065844;28;19931;-74
2022/10/04 05:05:53;;;;;;;;;;;11.50;99.90;;;;;;5065318;28;19924;-76
2022/10/04 05:08:21;;;;;;;;;;;11.50;99.90;;;;;;5062199;28;19921;-76
2022/10/04 05:10:59;;;;;;;;;;;11.50;99.90;;;;;;5060395;28;19969;-75
2022/10/04 05:13:38;;;;;;;;;;;11.40;99.90;;;;;;5064403;28;19921;-75
2022/10/04 05:16:32;;;;;;;;;;;11.40;99.90;;;;;;5058728;28;19959;-74
2022/10/04 05:19:00;;;;;;;;;;;11.40;99.90;;;;;;5030793;28;19931;-76
2022/10/04 05:21:28;;;;;;;;;;;11.30;99.90;;;;;;5064837;28;20007;-76
2022/10/04 05:24:07;;;;;;;;;;;11.30;99.90;;;;;;5065904;28;19931;-75
2022/10/04 05:26:34;;;;;;;;;;;11.40;99.90;;;;;;5044783;28;19937;-75
2022/10/04 05:29:06;;;;;;;;;;;11.30;99.90;;;;;;5068334;28;20331;-77
2022/10/04 05:31:44;;;;;;;;;;;11.30;99.90;;;;;;5068781;28;20404;-74
2022/10/04 05:34:17;;;;;;;;;;;11.30;99.90;;;;;;5066885;28;19928;-72
2022/10/04 05:36:44;;;;;;;;;;;11.30;99.90;;;;;;5066611;28;20495;-76
2022/10/04 05:39:17;;;;;;;;;;;11.30;99.90;;;;;;5065515;28;19928;-75
2022/10/04 05:41:47;;;;;;;;;;;11.30;99.90;;;;;;5067829;28;20027;-76
2022/10/04 05:44:33;;;;;;;;;;;11.30;99.90;;;;;;5068958;28;19920;-75
2022/10/04 05:47:00;;;;;;;;;;;11.30;99.90;;;;;;5063187;28;19936;-74
2022/10/04 05:49:29;;;;;;;;;;;11.30;99.90;;;;;;5069014;28;19943;-75
2022/10/04 05:52:01;;;;;;;;;;;11.30;99.90;;;;;;5067999;28;19920;-76
2022/10/04 05:54:31;;;;;;;;;;;11.30;99.90;;;;;;5067361;28;20255;-76
2022/10/04 05:57:07;;;;;;;;;;;11.40;99.90;;;;;;5047555;28;19940;-76
2022/10/04 05:59:50;;;;;;;;;;;11.40;99.90;;;;;;5069087;28;19920;-76
2022/10/04 06:02:19;;;;;;;;;;;11.40;99.90;;;;;;5068114;28;19962;-74
2022/10/04 06:05:06;;;;;;;;;;;11.40;99.90;;;;;;5067217;28;20000;-76
2022/10/04 06:07:37;;;;;;;;;;;11.30;99.90;;;;;;5055372;28;19920;-75
2022/10/04 06:10:24;;;;;;;;;;;11.40;99.90;;;;;;5062132;28;19920;-74
2022/10/04 06:12:52;;;;;;;;;;;11.40;99.90;;;;;;5062207;28;19938;-73
2022/10/04 06:15:31;;;;;;;;;;;11.40;99.90;;;;;;5067837;28;20399;-74
2022/10/04 06:18:10;;;;;;;;;;;11.50;99.90;;;;;;5065077;28;19920;-77
2022/10/04 06:20:46;;;;;;;;;;;11.50;99.90;;;;;;5063186;28;19920;-74
2022/10/04 06:23:15;;;;;;;;;;;11.50;99.90;;;;;;5067740;28;19929;-73
2022/10/04 06:25:50;;;;;;;;;;;11.50;99.90;;;;;;5049782;28;19944;-76
2022/10/04 06:28:26;;;;;;;;;;;11.50;99.90;;;;;;5064379;28;19920;-74
2022/10/04 06:30:58;;;;;;;;;;;11.50;99.90;;;;;;5063260;28;19928;-77
2022/10/04 06:33:26;;;;;;;;;;;11.60;99.90;;;;;;5060518;28;20239;-75
2022/10/04 06:36:11;;;;;;;;;;;11.50;99.90;;;;;;5064453;28;20080;-75
2022/10/04 06:38:43;;;;;;;;;;;11.50;99.90;;;;;;5060820;28;20004;-76
2022/10/04 06:41:17;;;;;;;;;;;11.50;99.90;;;;;;5064720;28;19943;-76
2022/10/04 06:44:06;;;;;;;;;;;11.60;99.90;;;;;;5065146;28;19943;-76
2022/10/04 06:46:44;;;;;;;;;;;11.60;99.90;;;;;;5063913;28;19924;-76
2022/10/04 06:49:27;;;;;;;;;;;11.60;99.90;;;;;;5064618;28;19920;-75
2022/10/04 06:51:57;;;;;;;;;;;11.60;99.90;;;;;;5067991;28;19924;-76
2022/10/04 06:54:31;;;;;;;;;;;11.60;99.90;;;;;;5068815;28;19920;-73
2022/10/04 06:57:13;;;;;;;;;;;11.60;99.90;;;;;;5063881;28;19947;-74
2022/10/04 06:59:58;;;;;;;;;;;11.60;99.90;;;;;;5046422;28;19924;-76
2022/10/04 07:02:27;;;;;;;;;;;11.60;99.90;;;;;;5064391;28;20346;-77
2022/10/04 07:05:01;;;;;;;;;;;11.60;99.90;;;;;;5042818;28;19960;-76
2022/10/04 07:07:43;;;;;;;;;;;11.60;99.90;;;;;;5067803;28;20038;-74
2022/10/04 07:10:16;;;;;;;;;;;11.70;99.90;;;;;;5065364;28;20015;-77
2022/10/04 07:12:46;;;;;;;;;;;11.70;99.90;;;;;;5063144;28;20007;-76
2022/10/04 07:15:19;;;;;;;;;;;11.70;99.90;;;;;;5067615;28;20057;-75
2022/10/04 07:17:47;;;;;;;;;;;11.80;99.90;;;;;;5062086;28;20090;-75
2022/10/04 07:20:41;;;;;;;;;;;11.80;99.90;;;;;;5066602;28;19920;-76
2022/10/04 07:23:13;;;;;;;;;;;11.80;99.90;;;;;;5060548;28;19989;-77
2022/10/04 07:25:47;;;;;;;;;;;11.80;99.90;;;;;;5063600;28;20385;-77
2022/10/04 07:31:05;;;;;;;;;;;11.90;99.90;;;;;;5058504;28;20299;-75
2022/10/04 07:33:34;;;;;;;;;;;12.00;99.90;;;;;;5067059;28;20484;-74
2022/10/04 07:36:07;;;;;;;;;;;12.00;99.90;;;;;;5065143;28;19925;-76
2022/10/04 07:38:37;;;;;;;;;;;12.00;99.90;;;;;;5061926;28;19920;-75
2022/10/04 07:41:07;;;;;;;;;;;12.00;99.90;;;;;;5066330;28;20697;-76
2022/10/04 07:43:39;;;;;;;;;;;12.10;99.90;;;;;;5067021;28;19928;-72
2022/10/04 07:46:27;;;;;;;;;;;12.10;99.90;;;;;;5067048;28;19920;-77
2022/10/04 07:48:55;;;;;;;;;;;12.10;99.90;;;;;;5064652;28;20019;-74
2022/10/04 07:51:32;;;;;;;;;;;12.10;99.90;;;;;;5063233;28;19924;-75
2022/10/04 07:53:59;;;;;;;;;;;12.10;99.90;;;;;;5066928;28;19924;-76
2022/10/04 07:56:50;;;;;;;;;;;12.10;99.90;;;;;;5067419;28;19927;-73
2022/10/04 07:59:35;;;;;;;;;;;12.10;99.90;;;;;;5056534;28;19927;-75
2022/10/04 08:02:21;;;;;;;;;;;12.20;99.90;;;;;;5065480;28;19935;-72
2022/10/04 08:05:00;;;;;;;;;;;12.20;99.90;;;;;;5064464;28;19997;-76
2022/10/04 08:07:36;;;;;;;;;;;12.10;99.90;;;;;;5061505;28;19927;-75
2022/10/04 08:10:12;;;;;;;;;;;12.20;99.90;;;;;;5063588;28;19934;-73
2022/10/04 08:12:50;;;;;;;;;;;12.20;99.90;;;;;;5057868;28;19940;-74
2022/10/04 08:15:34;;;;;;;;;;;12.20;99.90;;;;;;5060070;28;19965;-76
2022/10/04 08:18:01;;;;;;;;;;;12.20;99.90;;;;;;5063417;28;19928;-71
2022/10/04 08:20:43;;;;;;;;;;;12.30;99.90;;;;;;5066167;28;19930;-77
2022/10/04 08:23:19;;;;;;;;;;;12.30;99.90;;;;;;5062060;28;19928;-74
2022/10/04 08:25:55;;;;;;;;;;;12.30;99.90;;;;;;5067351;28;19931;-75
2022/10/04 08:31:26;;;;;;;;;;;12.30;99.90;;;;;;5058855;28;20010;-75
2022/10/04 08:34:00;;;;;;;;;;;12.30;99.90;;;;;;5064163;28;19931;-74
2022/10/04 08:36:46;;;;;;;;;;;12.40;99.90;;;;;;5060849;28;20007;-77
2022/10/04 08:39:39;;;;;;;;;;;12.40;99.90;;;;;;5061769;28;19925;-74
2022/10/04 08:42:19;;;;;;;;;;;12.40;99.90;;;;;;5043163;28;19927;-75
2022/10/04 08:44:49;;;;;;;;;;;12.40;99.90;;;;;;5061229;28;20358;-75
2022/10/04 08:47:37;;;;;;;;;;;12.40;99.90;;;;;;5055032;28;19920;-73
2022/10/04 08:50:23;;;;;;;;;;;12.50;99.90;;;;;;5063135;28;19920;-75
2022/10/04 08:53:08;;;;;;;;;;;12.50;99.90;;;;;;5065198;28;20015;-74
2022/10/04 08:55:54;;;;;;;;;;;12.60;99.90;;;;;;5059000;28;19970;-75
2022/10/04 08:58:22;;;;;;;;;;;12.60;99.90;;;;;;5070659;28;20354;-76
2022/10/04 09:00:55;;;;;;;;;;;12.60;99.90;;;;;;5068474;28;20015;-75
2022/10/04 09:03:25;;;;;;;;;;;12.70;99.90;;;;;;5067079;28;19970;-73
2022/10/04 09:06:03;;;;;;;;;;;12.70;99.90;;;;;;5067766;28;19920;-75
2022/10/04 09:08:48;;;;;;;;;;;12.70;99.90;;;;;;5060147;28;20273;-70
2022/10/04 09:11:15;;;;;;;;;;;12.70;99.90;;;;;;5068480;28;19978;-76
2022/10/04 09:13:48;;;;;;;;;;;12.70;99.90;;;;;;5066269;28;19940;-70
2022/10/04 09:16:22;;;;;;;;;;;12.70;99.90;;;;;;5069286;28;19928;-74
2022/10/04 09:19:08;;;;;;;;;;;12.70;99.90;;;;;;5068090;28;20646;-76
2022/10/04 09:21:53;;;;;;;;;;;12.70;99.90;;;;;;5068772;28;20006;-75
2022/10/04 09:24:26;;;;;;;;;;;12.70;99.90;;;;;;5067252;28;19926;-77
2022/10/04 09:27:11;;;;;;;;;;;12.80;99.90;;;;;;5068497;28;19928;-74
2022/10/04 09:29:37;;;;;;;;;;;12.70;99.90;;;;;;5068468;28;19944;-74
2022/10/04 09:32:24;;;;;;;;;;;12.80;99.90;;;;;;5069774;28;19921;-75
2022/10/04 09:34:53;;;;;;;;;;;12.80;99.90;;;;;;5060956;28;20685;-75
2022/10/04 09:37:40;;;;;;;;;;;12.90;99.90;;;;;;5068760;28;20266;-76
2022/10/04 09:40:26;;;;;;;;;;;12.80;99.90;;;;;;5058585;28;20288;-72
2022/10/04 09:42:53;;;;;;;;;;;12.90;99.90;;;;;;5068242;28;19928;-75
2022/10/04 09:45:26;;;;;;;;;;;13.00;99.90;;;;;;5069479;28;19932;-76
2022/10/04 09:48:06;;;;;;;;;;;13.00;99.90;;;;;;5066741;28;20110;-76
2022/10/04 09:50:52;;;;;;;;;;;13.00;99.90;;;;;;5066202;28;20276;-73
2022/10/04 09:53:25;;;;;;;;;;;13.00;99.90;;;;;;5070125;28;19929;-76
2022/10/04 09:56:01;;;;;;;;;;;13.00;99.90;;;;;;5065765;28;19920;-74
2022/10/04 09:58:31;;;;;;;;;;;13.10;99.90;;;;;;5067916;28;19928;-75
2022/10/04 10:01:00;;;;;;;;;;;13.20;99.90;;;;;;5065738;28;19921;-74
2022/10/04 10:03:33;;;;;;;;;;;13.20;99.90;;;;;;5065691;28;19921;-75
2022/10/04 10:06:16;;;;;;;;;;;13.10;99.90;;;;;;5069142;28;19950;-77
2022/10/04 10:08:48;;;;;;;;;;;13.10;99.90;;;;;;5063815;28;19939;-73
2022/10/04 10:14:15;;;;;;;;;;;13.20;99.90;;;;;;5065323;28;20023;-73
2022/10/04 10:16:59;;;;;;;;;;;13.20;99.90;;;;;;5063984;28;19921;-73
2022/10/04 10:19:26;;;;;;;;;;;13.20;99.90;;;;;;5067535;28;20325;-74
2022/10/04 10:21:54;;;;;;;;;;;13.20;99.90;;;;;;5063497;28;19920;-74
2022/10/04 10:24:20;;;;;;;;;;;13.20;99.90;;;;;;5068694;28;20595;-75
2022/10/04 10:26:47;;;;;;;;;;;13.20;99.90;;;;;;5066891;28;20353;-73
2022/10/04 10:29:26;;;;;;;;;;;13.20;99.90;;;;;;5065108;28;20269;-75
2022/10/04 10:31:54;;;;;;;;;;;13.10;99.90;;;;;;5065601;28;20245;-76
2022/10/04 10:34:26;;;;;;;;;;;13.20;99.90;;;;;;5064567;28;19920;-75
2022/10/04 10:37:02;;;;;;;;;;;13.10;99.90;;;;;;5066448;28;20397;-74
2022/10/04 10:39:48;;;;;;;;;;;13.20;99.90;;;;;;5063170;28;20250;-77
2022/10/04 10:42:34;;;;;;;;;;;13.20;99.90;;;;;;5064013;28;20028;-74
2022/10/04 10:45:12;;;;;;;;;;;13.20;99.90;;;;;;5066365;28;19928;-73
2022/10/04 10:47:59;;;;;;;;;;;13.10;99.90;;;;;;5066640;28;19920;-74
2022/10/04 10:50:57;;;;;;;;;;;13.20;99.90;;;;;;5065199;28;20282;-70
2022/10/04 10:53:24;;;;;;;;;;;13.10;99.90;;;;;;5062447;28;20001;-72
2022/10/04 10:55:59;;;;;;;;;;;13.20;99.90;;;;;;5066220;28;19927;-69
2022/10/04 10:58:32;;;;;;;;;;;13.30;99.90;;;;;;5064701;28;19969;-71
2022/10/04 11:01:05;;;;;;;;;;;13.30;99.90;;;;;;5063225;28;20288;-68
2022/10/04 11:03:51;;;;;;;;;;;13.40;99.90;;;;;;5063841;28;19920;-70
2022/10/04 11:06:37;;;;;;;;;;;13.40;99.90;;;;;;5064615;28;20265;-68
2022/10/04 11:09:10;;;;;;;;;;;13.30;99.90;;;;;;5044529;28;19966;-67
2022/10/04 11:11:45;;;;;;;;;;;13.30;99.90;;;;;;5061214;28;20042;-69
2022/10/04 11:14:18;;;;;;;;;;;13.30;99.90;;;;;;5061602;28;19924;-69
2022/10/04 11:16:48;;;;;;;;;;;13.30;99.90;;;;;;5063271;28;19920;-72
2022/10/04 11:19:33;;;;;;;;;;;13.30;99.90;;;;;;5065340;28;19924;-69
2022/10/04 11:22:18;;;;;;;;;;;13.40;99.90;;;;;;5066185;28;19926;-69
2022/10/04 11:24:54;;;;;;;;;;;13.40;99.90;;;;;;5064979;28;19924;-69
2022/10/04 11:27:42;;;;;;;;;;;13.40;99.90;;;;;;5066704;28;19920;-70
2022/10/04 11:30:21;;;;;;;;;;;13.50;99.90;;;;;;5064106;28;19926;-70
2022/10/04 11:33:08;;;;;;;;;;;13.50;99.90;;;;;;5062712;28;19928;-69
2022/10/04 11:35:54;;;;;;;;;;;13.40;99.90;;;;;;5062254;28;19920;-70
2022/10/04 11:38:31;;;;;;;;;;;13.50;99.90;;;;;;5065927;28;19970;-69
2022/10/04 11:41:16;;;;;;;;;;;13.50;99.90;;;;;;5062399;28;19921;-71
2022/10/04 11:43:45;;;;;;;;;;;13.60;99.90;;;;;;5066111;28;20013;-70
2022/10/04 11:46:21;;;;;;;;;;;13.60;99.90;;;;;;5064996;28;19921;-68
2022/10/04 11:48:47;;;;;;;;;;;13.50;99.90;;;;;;5062067;28;20014;-69
2022/10/04 11:51:17;;;;;;;;;;;13.40;99.90;;;;;;5065878;28;20022;-68
2022/10/04 11:53:53;;;;;;;;;;;13.40;99.90;;;;;;5061612;28;19924;-68
2022/10/04 11:56:28;;;;;;;;;;;13.40;99.90;;;;;;5065477;28;19970;-69
2022/10/04 11:59:16;;;;;;;;;;;13.50;99.90;;;;;;5063244;28;19967;-69
2022/10/04 12:01:48;;;;;;;;;;;13.60;99.90;;;;;;5064408;28;20031;-70
2022/10/04 12:04:18;;;;;;;;;;;13.50;99.90;;;;;;5045768;28;19920;-70
2022/10/04 12:07:14;;;;;;;;;;;13.60;99.90;;;;;;5061429;28;19924;-69
2022/10/04 12:09:47;;;;;;;;;;;13.60;99.90;;;;;;5048184;28;20289;-67
2022/10/04 12:12:35;;;;;;;;;;;13.60;99.90;;;;;;5063063;28;19921;-66
2022/10/04 12:15:07;;;;;;;;;;;13.70;99.90;;;;;;5062736;28;20645;-67
2022/10/04 12:17:50;;;;;;;;;;;13.70;99.90;;;;;;5065883;28;19921;-69
2022/10/04 12:20:27;;;;;;;;;;;13.70;99.90;;;;;;5059287;28;19991;-67
2022/10/04 12:23:13;;;;;;;;;;;13.70;99.90;;;;;;5062019;28;19963;-67
2022/10/04 12:25:52;;;;;;;;;;;13.80;99.90;;;;;;5064326;28;19999;-67
2022/10/04 12:28:34;;;;;;;;;;;13.80;99.90;;;;;;5061587;28;19974;-67
2022/10/04 12:31:15;;;;;;;;;;;13.80;99.90;;;;;;5059499;28;19974;-67
2022/10/04 12:33:45;;;;;;;;;;;13.80;99.90;;;;;;5058937;28;20448;-67
2022/10/04 12:36:39;;;;;;;;;;;13.80;99.90;;;;;;5058018;28;19931;-69
2022/10/04 12:39:25;;;;;;;;;;;13.80;99.90;;;;;;5026525;28;20497;-68
2022/10/04 12:42:11;;;;;;;;;;;13.80;99.90;;;;;;5061599;28;19966;-76
2022/10/04 12:45:16;;;;;;;;;;;13.90;99.90;;;;;;5062124;28;19962;-72
2022/10/04 12:47:53;;;;;;;;;;;14.00;99.90;;;;;;4980531;28;19933;-70
2022/10/04 12:50:25;;;;;;;;;;;13.80;99.90;;;;;;4982500;28;19925;-74
2022/10/04 12:52:52;;;;;;;;;;;13.80;99.90;;;;;;5023344;28;19962;-68
2022/10/04 12:55:37;;;;;;;;;;;13.80;99.90;;;;;;5065503;28;19920;-69
2022/10/04 12:58:06;;;;;;;;;;;13.70;99.90;;;;;;5064287;28;19985;-68
2022/10/04 13:00:37;;;;;;;;;;;13.70;99.90;;;;;;5063063;28;20336;-71
2022/10/04 13:03:13;;;;;;;;;;;13.80;99.90;;;;;;5062714;28;20342;-67
2022/10/04 13:05:48;;;;;;;;;;;13.70;99.90;;;;;;5060624;28;19920;-69
2022/10/04 13:08:27;;;;;;;;;;;13.90;99.90;;;;;;5061753;28;21049;-69
2022/10/04 13:11:00;;;;;;;;;;;13.90;99.90;;;;;;5056985;28;19986;-68
2022/10/04 13:13:40;;;;;;;;;;;13.90;99.90;;;;;;5059875;28;19925;-71
2022/10/04 13:16:23;;;;;;;;;;;14.00;99.90;;;;;;5063139;28;19935;-75
2022/10/04 13:19:42;;;;;;;;;;;13.90;99.90;;;;;;5063866;28;19920;-70
2022/10/04 13:22:17;;;;;;;;;;;13.90;99.90;;;;;;5063984;28;19920;-70
2022/10/04 13:25:07;;;;;;;;;;;13.80;99.90;;;;;;5063194;28;19925;-69
2022/10/04 13:27:40;;;;;;;;;;;13.80;99.90;;;;;;5063220;28;20052;-69
2022/10/04 13:30:22;;;;;;;;;;;13.80;99.90;;;;;;5060678;28;19927;-71
2022/10/04 13:32:57;;;;;;;;;;;13.80;99.90;;;;;;5057670;28;19929;-70
2022/10/04 13:35:30;;;;;;;;;;;13.90;99.90;;;;;;5064583;28;20444;-70
2022/10/04 13:38:11;;;;;;;;;;;13.80;99.90;;;;;;5064574;28;19928;-69
2022/10/04 13:40:41;;;;;;;;;;;13.80;99.90;;;;;;5064262;28;19951;-70
2022/10/04 13:43:07;;;;;;;;;;;13.90;99.90;;;;;;5066052;28;19958;-68
2022/10/04 13:45:40;;;;;;;;;;;14.10;99.90;;;;;;5067065;28;20305;-70
2022/10/04 13:48:07;;;;;;;;;;;14.10;99.90;;;;;;5067428;28;19977;-70
2022/10/04 13:50:45;;;;;;;;;;;14.30;99.90;;;;;;5063472;28;19924;-70
2022/10/04 13:59:20;;;;;;;;;;;14.40;99.90;;;;;;5060029;28;19968;-69
2022/10/04 14:01:52;;;;;;;;;;;14.40;99.90;;;;;;5064974;28;19920;-74
2022/10/04 14:04:25;;;;;;;;;;;14.50;99.90;;;;;;5064880;28;19927;-71
2022/10/04 14:07:07;;;;;;;;;;;14.60;99.90;;;;;;5062454;28;19928;-70
2022/10/04 14:09:40;;;;;;;;;;;14.80;99.90;;;;;;5069110;28;20288;-70
2022/10/04 14:12:16;;;;;;;;;;;14.80;99.90;;;;;;5065020;28;20412;-72
2022/10/04 14:14:52;;;;;;;;;;;14.90;99.90;;;;;;5066214;28;19920;-70
2022/10/04 14:17:39;;;;;;;;;;;15.00;99.90;;;;;;5060358;28;19962;-70
2022/10/04 14:20:15;;;;;;;;;;;15.10;99.90;;;;;;5063292;28;19920;-70
2022/10/04 14:22:42;;;;;;;;;;;15.20;99.90;;;;;;5063561;28;19967;-70
2022/10/04 14:25:08;;;;;;;;;;;15.30;99.90;;;;;;5048592;28;19994;-70
2022/10/04 14:27:49;;;;;;;;;;;15.40;99.90;;;;;;5066386;28;20377;-73
2022/10/04 14:30:19;;;;;;;;;;;15.40;99.90;;;;;;5066868;28;20026;-73
2022/10/04 14:33:06;;;;;;;;;;;15.60;99.90;;;;;;5064549;28;19950;-70
2022/10/04 14:35:53;;;;;;;;;;;15.60;99.90;;;;;;5047286;28;19925;-70
2022/10/04 14:38:23;;;;;;;;;;;15.50;99.90;;;;;;5049904;28;19924;-70
2022/10/04 14:40:52;;;;;;;;;;;15.70;99.90;;;;;;5060330;28;21204;-70
2022/10/04 14:43:37;;;;;;;;;;;15.80;99.90;;;;;;5068042;28;19974;-70
2022/10/04 14:46:06;;;;;;;;;;;15.80;99.90;;;;;;5066997;28;19934;-69
2022/10/04 14:48:45;;;;;;;;;;;15.70;99.90;;;;;;5063000;28;19921;-69
2022/10/04 14:51:11;;;;;;;;;;;15.70;99.90;;;;;;5065896;28;19926;-70
2022/10/04 14:53:46;;;;;;;;;;;15.70;99.90;;;;;;5065397;28;20554;-70
2022/10/04 14:56:13;;;;;;;;;;;15.70;99.90;;;;;;5068478;28;19925;-70
2022/10/04 14:58:39;;;;;;;;;;;15.40;99.90;;;;;;5045899;28;19924;-70
2022/10/04 15:01:12;;;;;;;;;;;15.20;99.90;;;;;;5064499;28;20342;-70
2022/10/04 15:03:59;;;;;;;;;;;15.00;99.90;;;;;;5063366;28;19951;-71
2022/10/04 15:06:47;;;;;;;;;;;14.70;99.90;;;;;;5062271;28;19924;-69
2022/10/04 15:09:33;;;;;;;;;;;14.40;99.90;;;;;;5061872;28;20425;-70
2022/10/04 15:12:23;;;;;;;;;;;14.40;99.90;;;;;;5066857;28;19927;-69
2022/10/04 15:15:13;;;;;;;;;;;14.20;99.90;;;;;;5048207;28;19920;-69
2022/10/04 15:17:52;;;;;;;;;;;14.10;99.90;;;;;;5066018;28;19920;-69